createdAt,value
2019-01-20T00:01:23.089Z,26.87
2019-01-20T00:03:53.925Z,31.83
2019-01-20T00:06:24.480Z,24.20
2019-01-20T00:08:54.930Z,27.13
2019-01-20T00:11:25.558Z,25.60
2019-01-20T00:13:56.077Z,22.93
2019-01-20T00:16:26.433Z,23.60
2019-01-20T00:18:56.859Z,20.40
2019-01-20T00:21:27.247Z,20.50
2019-01-20T00:23:57.673Z,21.67
2019-01-20T00:26:28.074Z,25.37
2019-01-20T00:28:58.518Z,24.73
2019-01-20T00:31:28.913Z,19.37
2019-01-20T00:34:00.484Z,18.23
2019-01-20T00:36:30.924Z,26.13
2019-01-20T00:39:01.423Z,23.40
2019-01-20T00:41:33.206Z,29.73
2019-01-20T00:44:03.824Z,16.77
2019-01-20T00:46:34.195Z,16.87
2019-01-20T00:49:04.630Z,18.70
2019-01-20T00:51:35.068Z,14.90
2019-01-20T00:54:05.600Z,20.00
2019-01-20T00:56:35.956Z,24.37
2019-01-20T00:59:06.329Z,26.43
2019-01-20T01:01:36.774Z,22.43
2019-01-20T01:04:07.208Z,18.80
2019-01-20T01:06:37.629Z,37.60
2019-01-20T01:09:09.574Z,34.20
2019-01-20T01:11:39.993Z,26.00
2019-01-20T01:14:10.499Z,23.03
2019-01-20T01:16:40.843Z,20.20
2019-01-20T01:19:11.230Z,12.50
2019-01-20T01:21:41.748Z,20.00
2019-01-20T01:24:12.170Z,20.43
2019-01-20T01:26:42.591Z,24.83
2019-01-20T01:29:12.950Z,11.57
2019-01-20T01:31:43.275Z,19.07
2019-01-20T01:34:13.613Z,14.83
2019-01-20T01:36:43.900Z,21.43
2019-01-20T01:39:14.233Z,16.37
2019-01-20T01:41:44.541Z,18.03
2019-01-20T01:44:15.926Z,16.90
2019-01-20T01:46:46.265Z,14.50
2019-01-20T01:49:16.644Z,14.37
2019-01-20T01:51:46.960Z,17.40
2019-01-20T01:54:17.320Z,23.93
2019-01-20T01:56:47.715Z,12.57
2019-01-20T01:59:18.113Z,18.37
2019-01-20T02:01:48.616Z,14.47
2019-01-20T02:04:19.008Z,13.07
2019-01-20T02:06:49.429Z,17.33
2019-01-20T02:09:19.848Z,13.13
2019-01-20T02:11:50.140Z,20.33
2019-01-20T02:14:20.554Z,13.47
2019-01-20T02:16:50.949Z,18.67
2019-01-20T02:19:21.273Z,13.90
2019-01-20T02:21:51.619Z,17.03
2019-01-20T02:24:22.024Z,21.43
2019-01-20T02:26:52.536Z,20.10
2019-01-20T02:29:22.840Z,17.00
2019-01-20T02:31:54.357Z,14.37
2019-01-20T02:34:24.728Z,19.27
2019-01-20T02:36:55.132Z,19.70
2019-01-20T02:39:25.522Z,15.77
2019-01-20T02:41:56.005Z,14.00
2019-01-20T02:44:26.510Z,14.20
2019-01-20T02:46:57.290Z,17.23
2019-01-20T02:49:27.710Z,16.53
2019-01-20T02:51:58.079Z,17.33
2019-01-20T02:54:28.438Z,22.27
2019-01-20T02:56:58.786Z,16.50
2019-01-20T02:59:29.112Z,21.10
2019-01-20T03:01:59.574Z,14.63
2019-01-20T03:04:29.976Z,18.17
2019-01-20T03:09:02.230Z,23.00
2019-01-20T03:11:34.139Z,15.50
2019-01-20T03:14:04.805Z,18.47
2019-01-20T03:16:35.344Z,19.97
2019-01-20T03:19:06.227Z,18.83
2019-01-20T03:21:36.883Z,17.87
2019-01-20T03:24:07.590Z,20.87
2019-01-20T03:26:38.023Z,33.23
2019-01-20T03:29:08.731Z,24.63
2019-01-20T03:31:39.782Z,18.80
2019-01-20T03:34:10.696Z,20.13
2019-01-20T03:36:41.287Z,21.83
2019-01-20T03:39:11.906Z,25.80
2019-01-20T03:41:42.629Z,22.17
2019-01-20T03:44:13.296Z,23.60
2019-01-20T03:46:43.949Z,14.27
2019-01-20T03:49:14.548Z,18.70
2019-01-20T03:51:45.114Z,18.77
2019-01-20T03:54:15.951Z,20.70
2019-01-20T03:56:46.496Z,18.87
2019-01-20T03:59:17.430Z,20.03
2019-01-20T04:01:47.994Z,12.10
2019-01-20T04:04:18.813Z,13.17
2019-01-20T04:06:49.412Z,17.27
2019-01-20T04:09:20.215Z,18.00
2019-01-20T04:11:51.164Z,20.93
2019-01-20T04:14:21.827Z,28.87
2019-01-20T04:16:52.478Z,17.33
2019-01-20T04:19:23.032Z,20.57
2019-01-20T04:21:53.392Z,18.07
2019-01-20T04:24:23.882Z,18.47
2019-01-20T04:26:54.262Z,21.87
2019-01-20T04:29:24.696Z,29.97
2019-01-20T04:31:55.159Z,17.80
2019-01-20T04:34:25.690Z,20.67
2019-01-20T04:36:55.987Z,20.47
2019-01-20T04:39:26.363Z,15.73
2019-01-20T04:41:56.756Z,20.70
2019-01-20T04:44:27.349Z,13.77
2019-01-20T04:46:57.880Z,16.63
2019-01-20T04:49:28.251Z,21.97
2019-01-20T04:51:58.758Z,24.40
2019-01-20T04:54:29.417Z,19.77
2019-01-20T04:56:59.909Z,22.30
2019-01-20T04:59:30.237Z,23.10
2019-01-20T05:02:00.910Z,18.43
2019-01-20T05:04:31.242Z,17.37
2019-01-20T05:07:01.660Z,21.30
2019-01-20T05:09:32.031Z,16.40
2019-01-20T05:12:02.462Z,19.20
2019-01-20T05:14:32.936Z,21.20
2019-01-20T05:17:03.264Z,19.57
2019-01-20T05:19:33.656Z,22.37
2019-01-20T05:22:04.019Z,21.37
2019-01-20T05:24:34.311Z,22.10
2019-01-20T05:27:04.822Z,18.63
2019-01-20T05:29:35.164Z,24.97
2019-01-20T05:32:05.612Z,24.63
2019-01-20T05:34:36.239Z,14.13
2019-01-20T05:37:06.672Z,21.13
2019-01-20T05:39:37.185Z,18.07
2019-01-20T05:42:07.577Z,22.13
2019-01-20T05:44:38.122Z,30.23
2019-01-20T05:47:08.515Z,20.17
2019-01-20T05:49:38.903Z,26.00
2019-01-20T05:52:09.491Z,23.77
2019-01-20T05:54:39.887Z,23.53
2019-01-20T05:57:10.309Z,21.13
2019-01-20T05:59:40.782Z,20.43
2019-01-20T06:02:11.353Z,25.30
2019-01-20T06:04:41.856Z,22.57
2019-01-20T06:07:12.172Z,28.77
2019-01-20T06:09:42.568Z,23.07
2019-01-20T06:12:12.953Z,19.00
2019-01-20T06:14:43.282Z,23.07
2019-01-20T06:17:13.810Z,20.10
2019-01-20T06:19:44.422Z,25.73
2019-01-20T06:22:15.138Z,19.33
2019-01-20T06:24:45.757Z,25.13
2019-01-20T06:27:16.046Z,32.20
2019-01-20T06:29:46.885Z,27.07
2019-01-20T06:32:17.500Z,52.50
2019-01-20T06:34:48.861Z,20.40
2019-01-20T06:37:19.750Z,22.17
2019-01-20T06:39:50.031Z,32.63
2019-01-20T06:42:20.351Z,19.40
2019-01-20T06:44:50.971Z,23.37
2019-01-20T06:47:21.509Z,25.50
2019-01-20T06:50:36.747Z,18.67
2019-01-20T06:53:07.611Z,20.33
2019-01-20T06:55:38.563Z,18.83
2019-01-20T06:58:08.958Z,23.47
2019-01-20T07:00:39.639Z,21.40
2019-01-20T07:03:10.357Z,21.63
2019-01-20T07:05:41.127Z,29.57
2019-01-20T07:08:12.167Z,22.47
2019-01-20T07:10:42.653Z,29.07
2019-01-20T07:13:13.096Z,18.77
2019-01-20T07:15:43.886Z,23.80
2019-01-20T07:18:15.568Z,27.73
2019-01-20T07:20:46.708Z,26.47
2019-01-20T07:23:17.146Z,24.03
2019-01-20T07:25:47.506Z,23.57
2019-01-20T07:28:18.542Z,20.37
2019-01-20T07:30:49.475Z,21.73
2019-01-20T07:33:19.898Z,29.23
2019-01-20T07:35:50.591Z,24.63
2019-01-20T07:38:21.096Z,28.00
2019-01-20T07:40:51.458Z,23.60
2019-01-20T07:43:21.993Z,23.10
2019-01-20T07:45:52.376Z,23.57
2019-01-20T07:48:22.746Z,25.27
2019-01-20T07:50:53.293Z,28.40
2019-01-20T07:53:23.926Z,30.40
2019-01-20T07:55:54.693Z,33.13
2019-01-20T07:58:25.114Z,34.30
2019-01-20T08:00:55.667Z,33.03
2019-01-20T08:03:26.033Z,29.10
2019-01-20T08:05:56.627Z,23.13
2019-01-20T08:08:27.026Z,21.47
2019-01-20T08:10:57.622Z,22.27
2019-01-20T08:13:28.225Z,33.25
2019-01-20T08:15:58.751Z,36.43
2019-01-20T08:18:29.552Z,28.97
2019-01-20T08:21:00.243Z,21.03
2019-01-20T08:23:30.981Z,24.60
2019-01-20T08:26:01.502Z,24.70
2019-01-20T08:28:31.932Z,29.23
2019-01-20T08:31:02.388Z,27.90
2019-01-20T08:33:33.033Z,28.13
2019-01-20T08:36:03.721Z,24.70
2019-01-20T08:38:34.097Z,28.90
2019-01-20T08:41:05.193Z,25.80
2019-01-20T08:43:36.113Z,26.20
2019-01-20T08:46:32.902Z,26.53
2019-01-20T08:49:03.778Z,22.23
2019-01-20T08:51:36.205Z,26.03
2019-01-20T08:54:07.082Z,26.67
2019-01-20T08:56:37.638Z,27.23
2019-01-20T08:59:08.298Z,30.80
2019-01-20T09:01:38.823Z,29.63
2019-01-20T09:04:09.631Z,24.27
2019-01-20T09:06:40.326Z,25.20
2019-01-20T09:09:11.213Z,25.63
2019-01-20T09:11:42.269Z,31.20
2019-01-20T09:14:13.104Z,28.43
2019-01-20T09:16:44.266Z,32.20
2019-01-20T09:19:14.808Z,31.77
2019-01-20T09:21:45.727Z,27.20
2019-01-20T09:24:27.981Z,31.70
2019-01-20T09:26:58.561Z,34.20
2019-01-20T09:29:30.648Z,26.53
2019-01-20T09:32:01.439Z,31.60
2019-01-20T09:34:32.499Z,28.03
2019-01-20T09:37:03.594Z,30.83
2019-01-20T09:39:34.623Z,20.83
2019-01-20T09:42:07.502Z,28.97
2019-01-20T09:44:38.322Z,25.80
2019-01-20T09:47:08.994Z,25.37
2019-01-20T09:49:42.599Z,26.10
2019-01-20T09:52:13.579Z,25.90
2019-01-20T09:54:44.071Z,25.97
2019-01-20T09:57:14.755Z,24.83
2019-01-20T09:59:47.239Z,28.63
2019-01-20T10:02:17.896Z,28.00
2019-01-20T10:04:49.089Z,28.33
2019-01-20T10:07:27.640Z,27.97
2019-01-20T10:10:00.554Z,37.00
2019-01-20T10:12:31.358Z,26.67
2019-01-20T10:15:01.919Z,29.80
2019-01-20T10:17:32.647Z,29.87
2019-01-20T10:20:15.869Z,25.43
2019-01-20T10:22:46.557Z,28.20
2019-01-20T10:25:17.073Z,24.40
2019-01-20T10:27:47.614Z,26.07
2019-01-20T10:30:21.652Z,22.50
2019-01-20T10:32:52.319Z,28.83
2019-01-20T10:35:30.174Z,24.27
2019-01-20T10:38:04.982Z,24.53
2019-01-20T10:40:45.453Z,26.57
2019-01-20T10:43:16.411Z,28.03
2019-01-20T10:45:47.018Z,31.67
2019-01-20T10:48:17.762Z,23.77
2019-01-20T10:50:48.675Z,29.70
2019-01-20T10:53:20.285Z,26.73
2019-01-20T10:55:51.239Z,26.80
2019-01-20T10:58:22.130Z,28.90
2019-01-20T11:00:52.755Z,23.07
2019-01-20T11:03:23.643Z,25.33
2019-01-20T11:05:54.102Z,25.53
2019-01-20T11:08:30.595Z,33.03
2019-01-20T11:11:03.673Z,24.87
2019-01-20T11:13:34.603Z,24.60
2019-01-20T11:16:07.256Z,22.83
2019-01-20T11:18:37.989Z,23.63
2019-01-20T11:21:08.752Z,21.50
2019-01-20T11:23:39.675Z,22.23
2019-01-20T11:26:10.497Z,23.37
2019-01-20T11:28:41.228Z,23.23
2019-01-20T11:31:11.752Z,27.73
2019-01-20T11:33:42.389Z,18.93
2019-01-20T11:36:17.904Z,20.47
2019-01-20T11:38:51.828Z,23.60
2019-01-20T11:41:22.610Z,17.53
2019-01-20T11:43:55.298Z,18.17
2019-01-20T11:46:30.744Z,18.77
2019-01-20T11:49:13.940Z,15.93
2019-01-20T11:51:44.659Z,24.13
2019-01-20T11:54:15.659Z,25.03
2019-01-20T11:56:46.793Z,24.67
2019-01-20T11:59:17.348Z,27.80
2019-01-20T12:01:48.045Z,24.30
2019-01-20T12:04:18.408Z,20.30
2019-01-20T12:06:49.283Z,19.77
2019-01-20T12:09:19.935Z,24.47
2019-01-20T12:11:57.004Z,27.87
2019-01-20T12:14:29.123Z,25.53
2019-01-20T12:16:59.720Z,30.90
2019-01-20T12:19:30.174Z,29.50
2019-01-20T12:22:00.899Z,24.97
2019-01-20T12:24:32.253Z,25.60
2019-01-20T12:27:11.719Z,33.00
2019-01-20T12:29:53.617Z,24.77
2019-01-20T12:32:35.465Z,21.50
2019-01-20T12:35:15.423Z,25.60
2019-01-20T12:37:46.845Z,26.20
2019-01-20T12:40:37.509Z,26.27
2019-01-20T12:43:11.435Z,22.47
2019-01-20T12:45:55.655Z,24.40
2019-01-20T12:48:36.998Z,19.30
2019-01-20T12:51:12.474Z,25.73
2019-01-20T12:53:45.660Z,27.57
2019-01-20T12:56:17.014Z,20.20
2019-01-20T12:58:49.671Z,31.03
2019-01-20T13:01:20.580Z,28.17
2019-01-20T13:03:51.662Z,32.07
2019-01-20T13:06:22.335Z,29.77
2019-01-20T13:08:53.004Z,26.17
2019-01-20T13:11:23.751Z,24.47
2019-01-20T13:13:54.526Z,27.93
2019-01-20T13:16:25.129Z,27.20
2019-01-20T13:18:55.765Z,28.93
2019-01-20T13:21:26.335Z,28.17
2019-01-20T13:23:57.066Z,29.63
2019-01-20T13:26:27.841Z,33.77
2019-01-20T13:28:58.456Z,26.50
2019-01-20T13:31:29.376Z,32.70
2019-01-20T13:34:00.206Z,32.47
2019-01-20T13:36:37.248Z,34.50
2019-01-20T13:39:12.049Z,32.80
2019-01-20T13:41:42.878Z,33.13
2019-01-20T13:44:13.658Z,42.30
2019-01-20T13:46:44.291Z,45.63
2019-01-20T13:49:14.761Z,47.87
2019-01-20T13:52:24.468Z,49.53
2019-01-20T13:54:54.980Z,44.67
2019-01-20T13:57:26.154Z,53.20
2019-01-20T13:59:56.786Z,51.70
2019-01-20T14:02:46.761Z,46.37
2019-01-20T14:05:17.589Z,53.33
2019-01-20T14:07:48.471Z,51.37
2019-01-20T14:10:19.895Z,53.23
2019-01-20T14:12:50.831Z,58.63
2019-01-20T14:15:21.571Z,55.43
2019-01-20T14:17:52.439Z,57.50
2019-01-20T14:20:23.225Z,52.60
2019-01-20T14:22:54.100Z,59.30
2019-01-20T14:25:26.796Z,65.70
2019-01-20T14:27:57.732Z,59.00
2019-01-20T14:30:29.917Z,57.10
2019-01-20T14:33:00.677Z,56.83
2019-01-20T14:38:39.448Z,55.07
2019-01-20T14:41:10.130Z,63.97
2019-01-20T14:43:40.785Z,63.10
2019-01-20T14:46:11.498Z,62.33
2019-01-20T14:48:42.130Z,64.00
2019-01-20T14:51:12.852Z,63.97
2019-01-20T14:53:43.596Z,74.63
2019-01-20T14:56:14.294Z,65.83
2019-01-20T14:58:45.024Z,65.30
2019-01-20T15:01:16.031Z,72.07
2019-01-20T15:03:46.670Z,70.83
2019-01-20T15:06:17.687Z,78.23
2019-01-20T15:08:48.274Z,89.47
2019-01-20T15:11:19.860Z,82.50
2019-01-20T15:13:50.461Z,81.27
2019-01-20T15:16:21.757Z,83.03
2019-01-20T15:18:52.781Z,87.17
2019-01-20T15:21:23.630Z,75.47
2019-01-20T15:23:54.296Z,75.73
2019-01-20T15:26:25.250Z,84.03
2019-01-20T15:28:55.750Z,83.50
2019-01-20T15:31:27.580Z,91.00
2019-01-20T15:33:58.336Z,97.50
2019-01-20T15:36:29.586Z,94.20
2019-01-20T15:39:00.436Z,87.23
2019-01-20T15:41:32.835Z,93.30
2019-01-20T15:44:03.775Z,76.40
2019-01-20T15:46:34.687Z,96.63
2019-01-20T15:49:05.725Z,83.30
2019-01-20T15:51:37.085Z,91.33
2019-01-20T15:54:08.075Z,89.53
2019-01-20T15:56:38.691Z,85.13
2019-01-20T15:59:10.686Z,92.50
2019-01-20T16:01:43.107Z,89.33
2019-01-20T16:04:14.312Z,100.87
2019-01-20T16:06:45.789Z,94.57
2019-01-20T16:09:23.530Z,90.87
2019-01-20T16:11:54.751Z,92.90
2019-01-20T16:14:25.243Z,93.73
2019-01-20T16:16:56.269Z,102.23
2019-01-20T16:19:27.127Z,94.80
2019-01-20T16:21:59.475Z,92.97
2019-01-20T16:24:31.114Z,92.63
2019-01-20T16:27:01.941Z,93.50
2019-01-20T16:29:33.368Z,95.33
2019-01-20T16:32:04.264Z,96.73
2019-01-20T16:34:35.036Z,91.13
2019-01-20T16:37:06.066Z,102.17
2019-01-20T16:39:36.931Z,101.47
2019-01-20T16:42:07.830Z,111.10
2019-01-20T16:44:43.439Z,111.90
2019-01-20T16:47:14.147Z,100.50
2019-01-20T16:49:44.861Z,111.53
2019-01-20T16:52:15.741Z,98.67
2019-01-20T16:54:46.346Z,107.70
2019-01-20T16:57:16.981Z,102.17
2019-01-20T16:59:47.479Z,101.37
2019-01-20T17:02:18.434Z,95.63
2019-01-20T17:04:49.146Z,95.97
2019-01-20T17:07:22.006Z,97.67
2019-01-20T17:09:52.376Z,104.53
2019-01-20T17:12:23.092Z,94.97
2019-01-20T17:14:53.540Z,111.97
2019-01-20T17:17:24.936Z,113.10
2019-01-20T17:19:55.543Z,115.97
2019-01-20T17:22:26.527Z,95.83
2019-01-20T17:24:57.273Z,120.80
2019-01-20T17:27:27.801Z,115.67
2019-01-20T17:30:02.530Z,104.50
2019-01-20T17:32:34.610Z,115.93
2019-01-20T17:35:06.636Z,95.63
2019-01-20T17:37:37.850Z,108.30
2019-01-20T17:40:12.374Z,141.00
2019-01-20T17:42:49.406Z,114.77
2019-01-20T17:45:22.442Z,120.47
2019-01-20T17:47:52.951Z,116.30
2019-01-20T17:50:29.808Z,104.73
2019-01-20T17:53:01.604Z,106.60
2019-01-20T17:55:32.284Z,101.23
2019-01-20T17:58:03.153Z,108.43
2019-01-20T18:00:39.950Z,109.90
2019-01-20T18:03:13.610Z,104.73
2019-01-20T18:05:49.248Z,115.03
2019-01-20T18:08:20.155Z,111.87
2019-01-20T18:10:51.008Z,111.43
2019-01-20T18:13:21.516Z,139.63
2019-01-20T18:15:54.784Z,171.33
2019-01-20T18:18:28.007Z,175.23
2019-01-20T18:20:58.771Z,116.23
2019-01-20T18:23:29.641Z,118.63
2019-01-20T18:26:02.479Z,212.97
2019-01-20T18:28:33.248Z,288.23
2019-01-20T18:31:05.502Z,189.83
2019-01-20T18:33:36.192Z,113.43
2019-01-20T18:36:12.330Z,105.73
2019-01-20T18:38:43.238Z,110.13
2019-01-20T18:41:17.793Z,102.30
2019-01-20T18:43:48.552Z,110.20
2019-01-20T18:46:19.607Z,104.07
2019-01-20T18:48:50.130Z,107.70
2019-01-20T18:51:20.984Z,113.03
2019-01-20T18:53:51.820Z,113.50
2019-01-20T18:56:22.592Z,100.17
2019-01-20T18:58:53.480Z,120.37
2019-01-20T19:01:27.057Z,115.10
2019-01-20T19:03:59.498Z,116.73
2019-01-20T19:06:30.394Z,105.17
2019-01-20T19:09:02.093Z,113.60
2019-01-20T19:11:34.732Z,100.43
2019-01-20T19:14:06.490Z,115.17
2019-01-20T19:16:37.302Z,109.77
2019-01-20T19:19:09.095Z,118.73
2019-01-20T19:21:43.527Z,107.03
2019-01-20T19:24:14.736Z,101.13
2019-01-20T19:26:46.077Z,109.73
2019-01-20T19:29:17.884Z,118.43
2019-01-20T19:31:50.893Z,122.53
2019-01-20T19:34:23.948Z,103.97
2019-01-20T19:36:54.827Z,112.53
2019-01-20T19:39:25.482Z,119.03
2019-01-20T19:41:56.191Z,110.20
2019-01-20T19:44:26.999Z,127.37
2019-01-20T19:46:58.881Z,112.40
2019-01-20T19:49:30.563Z,113.23
2019-01-20T19:52:01.407Z,115.67
2019-01-20T19:55:02.862Z,111.97
2019-01-20T19:57:33.968Z,105.77
2019-01-20T20:00:05.995Z,114.27
2019-01-20T20:02:36.646Z,113.27
2019-01-20T20:05:13.703Z,115.57
2019-01-20T20:07:45.083Z,120.70
2019-01-20T20:10:20.371Z,114.47
2019-01-20T20:12:51.256Z,124.70
2019-01-20T20:15:23.624Z,122.00
2019-01-20T20:17:54.839Z,114.33
2019-01-20T20:20:25.408Z,120.17
2019-01-20T20:22:56.675Z,114.10
2019-01-20T20:25:27.830Z,126.50
2019-01-20T20:27:58.885Z,111.13
2019-01-20T20:30:34.935Z,113.77
2019-01-20T20:33:07.657Z,118.00
2019-01-20T20:35:40.002Z,117.77
2019-01-20T20:38:10.758Z,114.90
2019-01-20T20:40:43.668Z,121.63
2019-01-20T20:43:14.459Z,127.93
2019-01-20T20:45:45.239Z,119.10
2019-01-20T20:48:33.732Z,141.30
2019-01-20T20:51:04.513Z,115.80
2019-01-20T20:53:36.485Z,108.70
2019-01-20T20:56:12.295Z,110.57
2019-01-20T20:58:43.025Z,115.37
2019-01-20T21:01:13.698Z,111.87
2019-01-20T21:03:49.417Z,110.90
2019-01-20T21:06:21.697Z,137.60
2019-01-20T21:08:52.551Z,127.60
2019-01-20T21:11:23.744Z,127.07
2019-01-20T21:13:58.773Z,125.57
2019-01-20T21:16:38.009Z,118.03
2019-01-20T21:19:15.320Z,124.30
2019-01-20T21:21:54.213Z,117.70
2019-01-20T21:24:33.067Z,106.73
2019-01-20T21:27:06.483Z,124.57
2019-01-20T21:29:37.975Z,103.87
2019-01-20T21:32:08.668Z,108.93
2019-01-20T21:34:39.415Z,109.87
2019-01-20T21:37:10.343Z,114.73
2019-01-20T21:39:42.641Z,108.07
2019-01-20T21:42:13.168Z,108.80
2019-01-20T21:44:43.764Z,105.80
2019-01-20T21:47:14.445Z,107.77
2019-01-20T21:49:45.080Z,112.87
2019-01-20T21:52:15.663Z,101.83
2019-01-20T21:54:46.555Z,104.57
2019-01-20T21:57:17.179Z,113.03
2019-01-20T21:59:47.855Z,119.60
2019-01-20T22:02:18.634Z,120.23
2019-01-20T22:04:49.065Z,118.67
2019-01-20T22:07:19.595Z,111.73
2019-01-20T22:09:50.329Z,112.97
2019-01-20T22:12:20.940Z,121.30
2019-01-20T22:14:51.319Z,102.47
2019-01-20T22:17:21.874Z,116.20
2019-01-20T22:19:53.351Z,116.57
2019-01-20T22:22:23.866Z,109.97
2019-01-20T22:24:54.355Z,106.53
2019-01-20T22:27:24.910Z,116.50
2019-01-20T22:29:55.874Z,121.23
2019-01-20T22:32:28.549Z,105.17
2019-01-20T22:35:00.449Z,114.23
2019-01-20T22:37:30.879Z,106.80
2019-01-20T22:40:01.473Z,110.80
2019-01-20T22:42:31.995Z,98.47
2019-01-20T22:45:03.866Z,112.07
2019-01-20T22:47:36.187Z,110.07
2019-01-20T22:50:07.790Z,112.43
2019-01-20T22:52:38.270Z,105.93
2019-01-20T22:55:10.440Z,109.10
2019-01-20T22:57:41.051Z,110.60
2019-01-20T23:00:39.647Z,108.40
2019-01-20T23:03:10.029Z,119.30
2019-01-20T23:05:40.389Z,117.40
2019-01-20T23:08:10.880Z,112.90
2019-01-20T23:10:41.356Z,115.03
2019-01-20T23:13:11.838Z,119.53
2019-01-20T23:15:42.292Z,103.63
2019-01-20T23:18:12.895Z,98.33
2019-01-20T23:20:43.415Z,99.80
2019-01-20T23:23:13.940Z,106.53
2019-01-20T23:25:44.844Z,93.83
2019-01-20T23:28:15.249Z,96.20
2019-01-20T23:30:45.860Z,98.13
2019-01-20T23:33:16.399Z,89.17
2019-01-20T23:35:46.919Z,109.83
2019-01-20T23:38:17.329Z,101.47
2019-01-20T23:40:47.757Z,94.00
2019-01-20T23:43:18.305Z,106.37
2019-01-20T23:45:51.566Z,101.03
2019-01-20T23:48:22.169Z,100.90
2019-01-20T23:50:52.713Z,99.30
2019-01-20T23:53:23.366Z,107.67
2019-01-20T23:55:55.216Z,105.60
2019-01-20T23:58:25.704Z,95.43
